createdAt,value
2022-11-20T00:01:31.418Z,14.00
2022-11-20T00:03:59.184Z,13.57
2022-11-20T00:06:27.891Z,11.60
2022-11-20T00:08:59.857Z,12.70
2022-11-20T00:11:28.254Z,12.30
2022-11-20T00:13:58.182Z,13.30
2022-11-20T00:16:26.881Z,11.03
2022-11-20T00:18:54.582Z,12.37
2022-11-20T00:21:26.455Z,11.97
2022-11-20T00:23:55.586Z,13.63
2022-11-20T00:26:23.712Z,10.93
2022-11-20T00:28:52.454Z,13.10
2022-11-20T00:31:19.534Z,12.83
2022-11-20T00:33:47.054Z,12.37
2022-11-20T00:36:18.884Z,12.50
2022-11-20T00:38:45.967Z,12.97
2022-11-20T00:41:15.397Z,12.63
2022-11-20T00:43:42.485Z,14.03
2022-11-20T00:46:16.681Z,11.20
2022-11-20T00:48:44.175Z,10.97
2022-11-20T00:51:13.876Z,12.90
2022-11-20T00:53:40.656Z,16.00
2022-11-20T00:56:10.315Z,10.77
2022-11-20T00:58:39.784Z,12.70
2022-11-20T01:01:12.735Z,13.20
2022-11-20T01:03:44.828Z,11.07
2022-11-20T01:06:17.425Z,11.90
2022-11-20T01:08:45.164Z,11.67
2022-11-20T01:11:15.509Z,10.17
2022-11-20T01:13:43.379Z,11.10
2022-11-20T01:16:13.307Z,13.63
2022-11-20T01:18:41.897Z,10.53
2022-11-20T01:21:11.445Z,12.70
2022-11-20T01:23:40.479Z,11.87
2022-11-20T01:26:09.597Z,10.43
2022-11-20T01:28:37.091Z,15.50
2022-11-20T01:31:22.684Z,14.20
2022-11-20T01:33:52.398Z,14.03
2022-11-20T01:36:20.710Z,12.17
2022-11-20T01:38:47.862Z,12.97
2022-11-20T01:41:35.893Z,11.60
2022-11-20T01:44:04.849Z,13.00
2022-11-20T01:46:39.195Z,12.53
2022-11-20T01:49:17.414Z,13.23
2022-11-20T01:51:49.474Z,10.67
2022-11-20T01:54:20.516Z,11.67
2022-11-20T01:56:51.086Z,11.37
2022-11-20T01:59:20.456Z,11.20
2022-11-20T02:01:47.925Z,11.37
2022-11-20T02:04:15.458Z,13.23
2022-11-20T02:06:50.296Z,12.13
2022-11-20T02:09:17.835Z,12.87
2022-11-20T02:11:44.917Z,12.33
2022-11-20T02:14:12.090Z,11.63
2022-11-20T02:16:44.991Z,13.07
2022-11-20T02:19:29.142Z,13.13
2022-11-20T02:22:11.823Z,13.67
2022-11-20T02:24:38.993Z,13.13
2022-11-20T02:27:12.874Z,11.10
2022-11-20T02:29:56.569Z,13.23
2022-11-20T02:32:25.014Z,16.57
2022-11-20T02:34:52.289Z,11.13
2022-11-20T02:37:20.486Z,13.50
2022-11-20T02:39:50.041Z,12.40
2022-11-20T02:42:16.803Z,13.60
2022-11-20T02:44:43.632Z,12.70
2022-11-20T02:47:10.576Z,12.23
2022-11-20T02:49:37.277Z,12.87
2022-11-20T02:52:04.101Z,13.77
2022-11-20T02:54:30.853Z,13.30
2022-11-20T02:56:57.607Z,11.87
2022-11-20T02:59:24.414Z,15.03
2022-11-20T03:01:51.219Z,13.67
2022-11-20T03:04:18.026Z,14.17
2022-11-20T03:06:44.715Z,12.43
2022-11-20T03:09:11.414Z,12.30
2022-11-20T03:11:38.118Z,14.70
2022-11-20T03:14:06.198Z,12.07
2022-11-20T03:16:33.651Z,12.60
2022-11-20T03:19:00.749Z,12.03
2022-11-20T03:21:30.654Z,15.30
2022-11-20T03:23:57.374Z,13.33
2022-11-20T03:26:26.796Z,15.00
2022-11-20T03:28:58.820Z,13.67
2022-11-20T03:31:28.262Z,12.70
2022-11-20T03:33:54.983Z,11.37
2022-11-20T03:36:22.391Z,12.63
2022-11-20T03:38:49.616Z,12.57
2022-11-20T03:41:32.652Z,11.90
2022-11-20T03:44:02.114Z,12.90
2022-11-20T03:46:29.958Z,13.80
2022-11-20T03:48:57.142Z,11.80
2022-11-20T03:51:25.999Z,13.63
2022-11-20T03:53:55.009Z,13.13
2022-11-20T03:56:25.689Z,14.00
2022-11-20T03:58:52.720Z,13.70
2022-11-20T04:01:22.763Z,13.57
2022-11-20T04:03:50.211Z,13.00
2022-11-20T04:06:19.701Z,13.47
2022-11-20T04:08:52.380Z,12.57
2022-11-20T04:11:26.355Z,12.70
2022-11-20T04:13:55.793Z,12.93
2022-11-20T04:16:23.946Z,12.10
2022-11-20T04:18:54.973Z,12.63
2022-11-20T04:21:22.146Z,13.90
2022-11-20T04:23:49.378Z,12.43
2022-11-20T04:26:16.137Z,12.97
2022-11-20T04:28:42.885Z,12.37
2022-11-20T04:31:11.999Z,13.30
2022-11-20T04:33:39.852Z,11.90
2022-11-20T04:36:13.004Z,18.50
2022-11-20T04:38:40.560Z,12.57
2022-11-20T04:41:09.697Z,13.03
2022-11-20T04:43:36.480Z,13.73
2022-11-20T04:46:03.286Z,12.80
2022-11-20T04:48:30.800Z,12.93
2022-11-20T04:50:57.931Z,11.97
2022-11-20T04:53:25.083Z,12.77
2022-11-20T04:55:51.924Z,11.97
2022-11-20T04:58:18.706Z,13.33
2022-11-20T05:00:45.398Z,15.00
2022-11-20T05:03:12.215Z,12.47
2022-11-20T05:05:39.000Z,12.53
2022-11-20T05:08:05.746Z,14.10
2022-11-20T05:10:32.483Z,12.30
2022-11-20T05:12:59.208Z,12.43
2022-11-20T05:15:26.005Z,10.77
2022-11-20T05:17:53.909Z,12.13
2022-11-20T05:20:21.309Z,13.83
2022-11-20T05:22:48.185Z,9.97
2022-11-20T05:25:14.993Z,11.10
2022-11-20T05:27:41.717Z,14.10
2022-11-20T05:30:09.303Z,12.90
2022-11-20T05:32:36.017Z,10.73
2022-11-20T05:35:02.782Z,12.50
2022-11-20T05:37:29.490Z,13.77
2022-11-20T05:39:56.171Z,12.67
2022-11-20T05:42:31.680Z,13.90
2022-11-20T05:45:03.764Z,12.70
2022-11-20T05:47:34.236Z,12.47
2022-11-20T05:50:01.523Z,14.27
2022-11-20T05:52:31.753Z,10.97
2022-11-20T05:54:58.571Z,14.33
2022-11-20T05:57:25.318Z,14.90
2022-11-20T05:59:52.097Z,13.50
2022-11-20T06:02:18.901Z,12.50
2022-11-20T06:04:45.607Z,11.80
2022-11-20T06:07:12.418Z,13.90
2022-11-20T06:09:39.215Z,12.87
2022-11-20T06:12:06.415Z,12.00
2022-11-20T06:14:33.367Z,13.80
2022-11-20T06:17:00.159Z,14.50
2022-11-20T06:19:26.879Z,12.83
2022-11-20T06:21:53.545Z,14.43
2022-11-20T06:24:20.314Z,12.20
2022-11-20T06:26:47.086Z,12.87
2022-11-20T06:29:13.834Z,13.47
2022-11-20T06:31:40.652Z,13.80
2022-11-20T06:34:07.848Z,12.87
2022-11-20T06:36:34.626Z,15.20
2022-11-20T06:39:01.903Z,12.53
2022-11-20T06:41:29.061Z,14.53
2022-11-20T06:43:55.983Z,14.00
2022-11-20T06:46:22.831Z,12.50
2022-11-20T06:48:50.476Z,12.77
2022-11-20T06:51:17.713Z,17.63
2022-11-20T06:53:44.716Z,13.40
2022-11-20T06:56:11.392Z,15.13
2022-11-20T06:58:39.220Z,13.43
2022-11-20T07:01:11.218Z,16.10
2022-11-20T07:03:38.981Z,16.53
2022-11-20T07:06:06.811Z,13.80
2022-11-20T07:08:33.965Z,18.03
2022-11-20T07:11:02.545Z,15.83
2022-11-20T07:13:29.865Z,12.53
2022-11-20T07:15:59.831Z,13.97
2022-11-20T07:18:26.537Z,15.57
2022-11-20T07:20:53.316Z,17.43
2022-11-20T07:23:20.053Z,14.13
2022-11-20T07:25:46.756Z,14.47
2022-11-20T07:28:15.014Z,13.17
2022-11-20T07:30:41.748Z,12.33
2022-11-20T07:33:08.465Z,16.83
2022-11-20T07:35:35.159Z,14.90
2022-11-20T07:38:01.872Z,16.53
2022-11-20T07:40:29.120Z,16.53
2022-11-20T07:42:57.077Z,14.23
2022-11-20T07:45:25.243Z,13.27
2022-11-20T07:47:52.568Z,14.50
2022-11-20T07:50:20.261Z,17.37
2022-11-20T07:52:47.158Z,19.20
2022-11-20T07:55:14.018Z,15.73
2022-11-20T07:57:41.051Z,14.80
2022-11-20T08:00:10.190Z,16.03
2022-11-20T08:02:40.513Z,18.07
2022-11-20T08:05:08.348Z,15.07
2022-11-20T08:07:43.259Z,15.70
2022-11-20T08:10:12.254Z,13.77
2022-11-20T08:13:09.147Z,14.10
2022-11-20T08:15:36.966Z,15.80
2022-11-20T08:18:30.094Z,14.93
2022-11-20T08:20:55.483Z,15.97
2022-11-20T08:23:24.073Z,16.53
2022-11-20T08:25:52.090Z,17.63
2022-11-20T08:28:21.832Z,13.83
2022-11-20T08:30:49.665Z,16.57
2022-11-20T08:33:18.219Z,15.90
2022-11-20T08:35:45.179Z,14.67
2022-11-20T08:38:11.929Z,16.53
2022-11-20T08:40:38.706Z,15.97
2022-11-20T08:43:05.530Z,15.27
2022-11-20T08:45:34.550Z,16.63
2022-11-20T08:48:03.950Z,13.80
2022-11-20T08:50:33.364Z,18.90
2022-11-20T08:53:06.909Z,14.60
2022-11-20T08:55:36.304Z,16.83
2022-11-20T08:58:09.428Z,17.33
2022-11-20T09:00:36.256Z,15.07
2022-11-20T09:03:03.336Z,14.20
2022-11-20T09:05:30.569Z,17.27
2022-11-20T09:07:58.406Z,16.80
2022-11-20T09:10:25.614Z,16.20
2022-11-20T09:12:53.690Z,18.77
2022-11-20T09:15:20.633Z,17.60
2022-11-20T09:17:54.580Z,18.43
2022-11-20T09:20:21.667Z,15.77
2022-11-20T09:22:49.250Z,15.93
2022-11-20T09:25:16.050Z,19.23
2022-11-20T09:27:44.739Z,17.23
2022-11-20T09:30:12.018Z,15.73
2022-11-20T09:32:40.263Z,18.33
2022-11-20T09:35:07.684Z,20.00
2022-11-20T09:37:34.462Z,18.43
2022-11-20T09:40:01.194Z,18.97
2022-11-20T09:42:54.373Z,16.17
2022-11-20T09:45:42.193Z,16.83
2022-11-20T09:48:11.803Z,19.00
2022-11-20T09:50:49.723Z,17.00
2022-11-20T09:53:53.715Z,19.90
2022-11-20T09:56:22.815Z,18.57
2022-11-20T09:58:52.609Z,17.67
2022-11-20T10:01:22.095Z,17.17
2022-11-20T10:04:24.158Z,17.47
2022-11-20T10:07:31.457Z,18.03
2022-11-20T10:09:56.840Z,18.07
2022-11-20T10:12:44.669Z,21.50
2022-11-20T10:15:29.836Z,18.27
2022-11-20T10:18:24.496Z,16.00
2022-11-20T10:21:14.231Z,17.87
2022-11-20T10:23:52.931Z,17.27
2022-11-20T10:26:47.094Z,17.53
2022-11-20T10:29:14.982Z,18.83
2022-11-20T10:31:47.918Z,17.13
2022-11-20T10:34:32.454Z,24.37
2022-11-20T10:37:19.582Z,27.33
2022-11-20T10:39:55.453Z,26.50
2022-11-20T10:42:41.177Z,24.17
2022-11-20T10:45:51.384Z,20.60
2022-11-20T10:48:24.448Z,22.07
2022-11-20T10:51:16.562Z,23.53
2022-11-20T10:54:15.651Z,20.60
2022-11-20T10:56:50.112Z,21.43
2022-11-20T10:59:28.943Z,21.83
2022-11-20T11:01:55.667Z,23.13
2022-11-20T11:04:46.360Z,24.80
2022-11-20T11:07:26.890Z,23.87
2022-11-20T11:09:56.013Z,25.10
2022-11-20T11:12:25.829Z,25.03
2022-11-20T11:14:59.021Z,26.20
2022-11-20T11:17:32.732Z,28.70
2022-11-20T11:20:03.656Z,29.03
2022-11-20T11:22:33.711Z,28.40
2022-11-20T11:25:01.356Z,28.23
2022-11-20T11:27:28.579Z,26.13
2022-11-20T11:30:17.002Z,30.33
2022-11-20T11:32:44.248Z,29.66
2022-11-20T11:35:26.673Z,28.50
2022-11-20T11:38:05.853Z,27.10
2022-11-20T11:40:35.620Z,29.23
2022-11-20T11:43:28.065Z,28.90
2022-11-20T11:45:56.894Z,36.03
2022-11-20T11:48:23.743Z,31.07
2022-11-20T11:50:53.005Z,28.80
2022-11-20T11:53:22.760Z,30.97
2022-11-20T11:56:12.220Z,33.03
2022-11-20T11:58:51.140Z,31.07
2022-11-20T12:01:46.014Z,28.60
2022-11-20T12:04:39.647Z,28.40
2022-11-20T12:07:44.892Z,31.43
2022-11-20T12:10:04.421Z,34.17
2022-11-20T12:12:44.092Z,33.80
2022-11-20T12:15:24.114Z,33.17
2022-11-20T12:17:50.991Z,35.83
2022-11-20T12:20:17.932Z,36.67
2022-11-20T12:23:18.865Z,38.93
2022-11-20T12:25:49.883Z,41.53
2022-11-20T12:28:39.386Z,35.67
2022-11-20T12:31:41.493Z,33.93
2022-11-20T12:34:29.221Z,40.80
2022-11-20T12:37:36.231Z,37.10
2022-11-20T12:40:36.801Z,39.17
2022-11-20T12:43:42.811Z,39.77
2022-11-20T12:46:50.666Z,40.17
2022-11-20T12:49:40.442Z,38.13
2022-11-20T12:52:32.083Z,44.67
2022-11-20T12:55:21.652Z,38.23
2022-11-20T12:58:17.443Z,38.60
2022-11-20T13:01:06.019Z,39.53
2022-11-20T13:03:45.431Z,42.93
2022-11-20T13:06:18.391Z,43.70
2022-11-20T13:08:54.503Z,39.10
2022-11-20T13:12:04.394Z,35.73
2022-11-20T13:14:53.442Z,39.77
2022-11-20T13:17:35.647Z,33.77
2022-11-20T13:20:06.299Z,36.47
2022-11-20T13:23:09.631Z,40.17
2022-11-20T13:25:38.814Z,37.40
2022-11-20T13:28:29.865Z,40.10
2022-11-20T13:30:58.095Z,46.77
2022-11-20T13:33:35.649Z,41.07
2022-11-20T13:36:07.893Z,37.10
2022-11-20T13:38:52.097Z,40.20
2022-11-20T13:41:36.535Z,39.27
2022-11-20T13:44:25.746Z,39.97
2022-11-20T13:46:52.775Z,46.93
2022-11-20T13:49:44.853Z,38.70
2022-11-20T13:52:49.603Z,35.87
2022-11-20T13:55:43.414Z,39.93
2022-11-20T13:58:21.834Z,36.40
2022-11-20T14:00:58.687Z,38.67
2022-11-20T14:03:58.520Z,38.67
2022-11-20T14:06:29.703Z,38.23
2022-11-20T14:08:56.901Z,38.07
2022-11-20T14:11:26.527Z,36.57
2022-11-20T14:13:58.141Z,45.97
2022-11-20T14:16:26.555Z,37.73
2022-11-20T14:18:54.485Z,36.03
2022-11-20T14:21:30.539Z,39.97
2022-11-20T14:24:07.512Z,40.73
2022-11-20T14:26:35.030Z,34.93
2022-11-20T14:29:02.167Z,34.27
2022-11-20T14:31:29.530Z,37.17
2022-11-20T14:33:56.577Z,38.13
2022-11-20T14:36:25.553Z,35.27
2022-11-20T14:38:54.317Z,37.80
2022-11-20T14:41:25.175Z,37.10
2022-11-20T14:43:58.309Z,39.03
2022-11-20T14:46:26.210Z,46.87
2022-11-20T14:48:58.586Z,41.20
2022-11-20T14:51:32.637Z,36.73
2022-11-20T14:54:19.850Z,38.13
2022-11-20T14:57:04.521Z,39.73
2022-11-20T14:59:36.186Z,39.83
2022-11-20T15:02:10.049Z,38.90
2022-11-20T15:05:00.435Z,40.43
2022-11-20T15:07:30.189Z,38.20
2022-11-20T15:10:01.647Z,37.57
2022-11-20T15:12:29.163Z,44.17
2022-11-20T15:14:56.435Z,43.20
2022-11-20T15:17:23.426Z,40.20
2022-11-20T15:19:50.289Z,46.50
2022-11-20T15:22:20.138Z,41.33
2022-11-20T15:24:47.729Z,47.60
2022-11-20T15:27:14.624Z,40.90
2022-11-20T15:29:42.672Z,44.87
2022-11-20T15:32:13.407Z,42.50
2022-11-20T15:34:40.801Z,41.10
2022-11-20T15:37:07.572Z,35.93
2022-11-20T15:39:34.340Z,37.53
2022-11-20T15:42:01.074Z,42.20
2022-11-20T15:44:27.841Z,41.63
2022-11-20T15:46:54.812Z,37.07
2022-11-20T15:49:23.824Z,41.87
2022-11-20T15:51:51.433Z,34.43
2022-11-20T15:54:24.047Z,40.60
2022-11-20T15:56:54.610Z,36.27
2022-11-20T15:59:21.737Z,42.10
2022-11-20T16:01:48.526Z,34.07
2022-11-20T16:04:17.644Z,41.87
2022-11-20T16:06:44.495Z,38.17
2022-11-20T16:09:11.604Z,37.63
2022-11-20T16:11:38.780Z,33.43
2022-11-20T16:14:25.206Z,37.10
2022-11-20T16:16:52.273Z,36.20
2022-11-20T16:19:19.541Z,31.37
2022-11-20T16:21:46.511Z,33.60
2022-11-20T16:24:15.204Z,35.73
2022-11-20T16:26:42.102Z,38.27
2022-11-20T16:29:09.366Z,34.03
2022-11-20T16:31:36.419Z,34.30
2022-11-20T16:34:12.024Z,29.00
2022-11-20T16:36:43.367Z,31.90
2022-11-20T16:39:10.307Z,35.50
2022-11-20T16:41:37.369Z,35.63
2022-11-20T16:44:08.647Z,31.33
2022-11-20T16:46:35.857Z,31.23
2022-11-20T16:49:05.570Z,30.43
2022-11-20T16:51:35.350Z,26.23
2022-11-20T16:54:03.741Z,25.33
2022-11-20T16:56:30.454Z,29.33
2022-11-20T16:59:00.020Z,28.17
2022-11-20T17:01:28.901Z,31.27
2022-11-20T17:04:04.003Z,31.73
2022-11-20T17:06:33.725Z,27.33
2022-11-20T17:09:00.709Z,24.20
2022-11-20T17:11:28.460Z,29.07
2022-11-20T17:13:56.629Z,25.50
2022-11-20T17:16:24.637Z,26.37
2022-11-20T17:18:51.390Z,23.47
2022-11-20T17:21:20.093Z,22.63
2022-11-20T17:23:47.553Z,24.57
2022-11-20T17:26:20.058Z,27.87
2022-11-20T17:28:52.486Z,28.07
2022-11-20T17:31:19.549Z,27.07
2022-11-20T17:33:47.028Z,25.20
2022-11-20T17:36:16.606Z,25.30
2022-11-20T17:38:44.501Z,24.67
2022-11-20T17:41:16.932Z,23.07
2022-11-20T17:43:44.355Z,21.00
2022-11-20T17:46:17.255Z,21.20
2022-11-20T17:48:44.764Z,22.03
2022-11-20T17:51:18.133Z,21.93
2022-11-20T17:53:47.689Z,23.30
2022-11-20T17:56:33.257Z,19.97
2022-11-20T17:59:00.780Z,20.03
2022-11-20T18:01:27.645Z,20.77
2022-11-20T18:03:56.573Z,22.83
2022-11-20T18:06:25.424Z,17.07
2022-11-20T18:08:52.287Z,16.97
2022-11-20T18:11:24.422Z,19.13
2022-11-20T18:14:12.528Z,17.27
2022-11-20T18:16:45.980Z,17.97
2022-11-20T18:19:15.168Z,17.57
2022-11-20T18:21:42.161Z,21.27
2022-11-20T18:24:09.293Z,26.03
2022-11-20T18:26:42.774Z,16.83
2022-11-20T18:29:12.405Z,20.80
2022-11-20T18:31:39.621Z,22.00
2022-11-20T18:34:11.396Z,23.00
2022-11-20T18:36:38.628Z,19.00
2022-11-20T18:39:05.802Z,21.83
2022-11-20T18:41:51.561Z,27.50
2022-11-20T18:44:42.204Z,22.90
2022-11-20T18:47:14.633Z,23.93
2022-11-20T18:49:42.509Z,23.43
2022-11-20T18:52:09.453Z,25.83
2022-11-20T18:54:37.061Z,21.67
2022-11-20T18:57:07.431Z,22.47
2022-11-20T18:59:34.193Z,30.00
2022-11-20T19:02:01.048Z,29.10
2022-11-20T19:04:28.162Z,27.70
2022-11-20T19:06:56.392Z,30.27
2022-11-20T19:09:24.364Z,33.27
2022-11-20T19:11:51.658Z,41.07
2022-11-20T19:14:18.666Z,34.80
2022-11-20T19:16:45.612Z,39.47
2022-11-20T19:19:12.731Z,33.30
2022-11-20T19:21:39.546Z,34.40
2022-11-20T19:24:06.590Z,39.37
2022-11-20T19:26:36.139Z,35.97
2022-11-20T19:29:04.468Z,31.13
2022-11-20T19:31:31.711Z,37.87
2022-11-20T19:34:00.840Z,32.70
2022-11-20T19:36:30.374Z,33.30
2022-11-20T19:38:57.256Z,37.73
2022-11-20T19:41:29.153Z,38.50
2022-11-20T19:44:11.714Z,37.00
2022-11-20T19:46:39.974Z,37.90
2022-11-20T19:49:10.199Z,35.80
2022-11-20T19:51:39.206Z,37.93
2022-11-20T19:54:06.820Z,41.03
2022-11-20T19:56:34.452Z,45.57
2022-11-20T19:59:01.911Z,39.27
2022-11-20T20:01:30.793Z,41.50
2022-11-20T20:04:05.441Z,41.33
2022-11-20T20:06:34.428Z,35.57
2022-11-20T20:09:07.705Z,33.93
2022-11-20T20:11:35.472Z,38.53
2022-11-20T20:14:07.103Z,43.57
2022-11-20T20:16:35.179Z,37.23
2022-11-20T20:19:03.784Z,34.40
2022-11-20T20:21:32.180Z,34.67
2022-11-20T20:23:59.721Z,33.80
2022-11-20T20:26:28.715Z,37.40
2022-11-20T20:28:55.971Z,31.03
2022-11-20T20:31:26.505Z,32.50
2022-11-20T20:33:53.393Z,37.07
2022-11-20T20:36:21.731Z,36.27
2022-11-20T20:38:51.944Z,35.80
2022-11-20T20:41:23.077Z,36.43
2022-11-20T20:44:08.660Z,38.47
2022-11-20T20:46:35.427Z,41.40
2022-11-20T20:49:02.237Z,39.27
2022-11-20T20:51:29.652Z,41.47
2022-11-20T20:53:56.513Z,42.40
2022-11-20T20:56:23.249Z,42.80
2022-11-20T20:58:49.956Z,45.30
2022-11-20T21:01:18.819Z,37.47
2022-11-20T21:03:45.598Z,40.57
2022-11-20T21:06:12.826Z,43.67
2022-11-20T21:08:41.612Z,37.57
2022-11-20T21:11:12.477Z,39.80
2022-11-20T21:13:40.694Z,35.63
2022-11-20T21:16:07.862Z,36.77
2022-11-20T21:18:35.418Z,33.93
2022-11-20T21:21:24.310Z,29.93
2022-11-20T21:23:53.325Z,25.03
2022-11-20T21:26:21.313Z,31.00
2022-11-20T21:28:49.795Z,30.77
2022-11-20T21:31:23.460Z,29.63
2022-11-20T21:33:51.588Z,32.77
2022-11-20T21:36:24.216Z,28.87
2022-11-20T21:38:52.588Z,33.03
2022-11-20T21:41:19.423Z,33.67
2022-11-20T21:43:51.548Z,30.43
2022-11-20T21:46:26.010Z,31.13
2022-11-20T21:48:53.313Z,29.30
2022-11-20T21:51:22.732Z,32.30
2022-11-20T21:53:50.626Z,33.03
2022-11-20T21:56:20.703Z,36.83
2022-11-20T21:58:48.702Z,37.30
2022-11-20T22:01:27.804Z,35.10
2022-11-20T22:03:57.438Z,40.10
2022-11-20T22:06:26.098Z,39.97
2022-11-20T22:08:53.262Z,39.70
2022-11-20T22:11:21.804Z,33.53
2022-11-20T22:14:07.682Z,30.93
2022-11-20T22:16:36.200Z,27.43
2022-11-20T22:19:04.319Z,27.13
2022-11-20T22:21:31.654Z,30.33
2022-11-20T22:23:58.825Z,28.43
2022-11-20T22:26:27.912Z,26.10
2022-11-20T22:28:57.242Z,28.40
2022-11-20T22:31:25.585Z,24.60
2022-11-20T22:33:52.698Z,28.77
2022-11-20T22:36:28.359Z,29.27
2022-11-20T22:38:55.598Z,30.43
2022-11-20T22:41:27.431Z,27.37
2022-11-20T22:43:59.305Z,26.80
2022-11-20T22:46:27.451Z,30.87
2022-11-20T22:48:56.402Z,27.10
2022-11-20T22:51:25.819Z,28.77
2022-11-20T22:53:52.933Z,26.93
2022-11-20T22:56:20.543Z,24.40
2022-11-20T22:58:49.093Z,29.77
2022-11-20T23:01:27.583Z,24.20
2022-11-20T23:04:00.074Z,21.63
2022-11-20T23:06:27.317Z,26.07
2022-11-20T23:08:54.374Z,24.43
2022-11-20T23:11:23.989Z,21.37
2022-11-20T23:13:56.571Z,24.20
2022-11-20T23:16:24.371Z,18.80
2022-11-20T23:18:59.655Z,24.50
2022-11-20T23:21:26.840Z,23.90
2022-11-20T23:23:56.765Z,23.93
2022-11-20T23:26:25.759Z,22.33
2022-11-20T23:28:54.803Z,19.83
2022-11-20T23:31:21.850Z,21.57
2022-11-20T23:33:48.807Z,21.80
2022-11-20T23:36:16.032Z,21.00
2022-11-20T23:38:43.365Z,20.53
2022-11-20T23:41:11.462Z,20.13
2022-11-20T23:43:38.232Z,16.43
2022-11-20T23:46:05.786Z,21.07
2022-11-20T23:48:35.797Z,16.60
2022-11-20T23:51:03.362Z,16.37
2022-11-20T23:53:30.191Z,18.47
2022-11-20T23:55:59.638Z,13.37
2022-11-20T23:58:30.543Z,19.43
